createdAt,value
2023-03-06T00:03:33.727Z,99354.98
2023-03-06T00:07:36.768Z,99350.61
2023-03-06T00:11:39.766Z,99347.81
2023-03-06T00:15:42.778Z,99343.63
2023-03-06T00:19:45.769Z,99335.59
2023-03-06T00:23:48.716Z,99330.39
2023-03-06T00:27:52.136Z,99332.35
2023-03-06T00:31:55.678Z,99332.27
2023-03-06T00:35:59.511Z,99327.31
2023-03-06T00:40:04.328Z,99322.94
2023-03-06T00:44:07.401Z,99320.02
2023-03-06T00:48:10.952Z,99312.98
2023-03-06T00:52:19.093Z,99305.48
2023-03-06T00:56:22.461Z,99299.70
2023-03-06T01:00:25.689Z,99290.95
2023-03-06T01:04:28.650Z,99287.38
2023-03-06T01:08:31.793Z,99287.23
2023-03-06T01:12:35.193Z,99285.79
2023-03-06T01:16:38.388Z,99279.05
2023-03-06T01:20:41.520Z,99277.59
2023-03-06T01:24:44.671Z,99277.67
2023-03-06T01:28:47.590Z,99269.78
2023-03-06T01:32:51.150Z,99264.70
2023-03-06T01:36:54.646Z,99259.50
2023-03-06T01:40:58.303Z,99257.98
2023-03-06T01:45:14.234Z,99250.18
2023-03-06T01:49:22.230Z,99243.42
2023-03-06T01:58:12.888Z,99236.77
2023-03-06T02:02:17.274Z,99231.02
2023-03-06T02:06:25.033Z,99223.84
2023-03-06T02:10:28.980Z,99213.86
2023-03-06T02:15:21.913Z,99206.83
2023-03-06T02:19:54.110Z,99205.91
2023-03-06T02:24:12.539Z,99193.31
2023-03-06T02:28:18.600Z,99187.85
2023-03-06T02:32:21.477Z,99187.59
2023-03-06T02:36:24.226Z,99190.30
2023-03-06T02:40:27.105Z,99184.88
2023-03-06T02:44:35.834Z,99177.27
2023-03-06T02:48:38.603Z,99178.44
2023-03-06T02:52:41.353Z,99172.52
2023-03-06T02:57:11.474Z,99163.42
2023-03-06T03:01:14.490Z,99157.77
2023-03-06T03:06:18.361Z,99156.84
2023-03-06T03:10:21.178Z,99152.52
2023-03-06T03:14:24.758Z,99150.05
2023-03-06T03:18:27.679Z,99147.50
2023-03-06T03:22:30.661Z,99144.91
2023-03-06T03:27:01.974Z,99139.77
2023-03-06T03:31:06.760Z,99133.73
2023-03-06T03:36:00.119Z,99129.85
2023-03-06T03:40:04.227Z,99128.00
2023-03-06T03:49:46.160Z,99117.33
2023-03-06T03:53:49.379Z,99110.16
2023-03-06T03:57:52.178Z,99104.25
2023-03-06T04:01:56.135Z,99102.73
2023-03-06T04:06:19.924Z,99100.96
2023-03-06T04:10:22.705Z,99094.75
2023-03-06T04:14:45.119Z,99095.99
2023-03-06T04:18:47.878Z,99090.48
2023-03-06T04:23:03.220Z,99086.05
2023-03-06T04:27:06.073Z,99092.85
2023-03-06T04:31:15.350Z,99089.21
2023-03-06T04:35:18.356Z,99084.13
2023-03-06T04:58:33.594Z,99063.08
2023-03-06T05:09:14.517Z,99060.77
2023-03-06T05:13:17.296Z,99059.36
2023-03-06T05:17:24.013Z,99054.93
2023-03-06T05:21:26.828Z,99056.48
2023-03-06T05:25:29.681Z,99058.24
2023-03-06T05:29:36.970Z,99052.53
2023-03-06T05:33:39.646Z,99054.23
2023-03-06T05:37:42.503Z,99059.63
2023-03-06T05:41:56.771Z,99060.48
2023-03-06T05:46:05.528Z,99058.55
2023-03-06T05:50:10.625Z,99058.23
2023-03-06T06:08:55.879Z,99051.91
2023-03-06T06:13:58.182Z,99059.23
2023-03-06T06:23:31.045Z,99058.90
2023-03-06T06:27:35.406Z,99059.96
2023-03-06T06:31:40.902Z,99059.20
2023-03-06T06:35:48.108Z,99059.65
2023-03-06T06:39:51.050Z,99058.65
2023-03-06T06:43:53.974Z,99058.25
2023-03-06T06:48:05.174Z,99061.85
2023-03-06T06:52:08.114Z,99059.70
2023-03-06T07:01:36.029Z,99062.99
2023-03-06T07:29:58.934Z,99069.48
2023-03-06T07:34:04.519Z,99071.77
2023-03-06T07:38:07.863Z,99070.60
2023-03-06T07:42:14.140Z,99070.55
2023-03-06T07:46:19.523Z,99071.65
2023-03-06T07:50:22.299Z,99072.12
2023-03-06T07:54:26.867Z,99073.30
2023-03-06T07:58:57.158Z,99075.49
2023-03-06T08:03:00.077Z,99080.89
2023-03-06T08:07:03.602Z,99079.22
2023-03-06T08:11:07.865Z,99081.02
2023-03-06T08:15:12.000Z,99082.71
2023-03-06T08:19:15.750Z,99079.70
2023-03-06T08:46:11.251Z,99088.05
2023-03-06T08:55:03.859Z,99084.50
2023-03-06T08:59:09.628Z,99089.10
2023-03-06T09:03:12.689Z,99091.46
2023-03-06T09:07:16.231Z,99094.47
2023-03-06T09:11:20.640Z,99088.38
2023-03-06T09:15:51.230Z,99090.59
2023-03-06T09:19:53.920Z,99088.20
2023-03-06T09:23:56.860Z,99088.17
2023-03-06T09:28:11.005Z,99088.44
2023-03-06T09:32:40.638Z,99081.52
2023-03-06T09:36:56.058Z,99076.86
2023-03-06T09:41:41.535Z,99071.13
2023-03-06T09:45:45.270Z,99075.51
2023-03-06T10:01:01.272Z,99062.36
2023-03-06T10:05:07.273Z,99059.59
2023-03-06T10:09:32.092Z,99058.20
2023-03-06T10:14:12.560Z,99054.69
2023-03-06T10:18:33.608Z,99050.48
2023-03-06T10:28:41.461Z,99042.59
2023-03-06T10:32:56.126Z,99045.55
2023-03-06T10:37:19.161Z,99039.80
2023-03-06T10:41:24.888Z,99034.84
2023-03-06T10:45:27.977Z,99026.82
2023-03-06T10:49:37.120Z,99017.67
2023-03-06T10:54:14.431Z,99016.17
2023-03-06T10:58:22.812Z,99012.47
2023-03-06T11:02:32.020Z,99014.38
2023-03-06T11:06:35.661Z,99003.64
2023-03-06T11:10:39.541Z,99003.86
2023-03-06T11:15:23.432Z,99000.16
2023-03-06T11:19:29.211Z,99002.14
2023-03-06T11:23:54.444Z,98993.81
2023-03-06T11:28:25.003Z,98994.53
2023-03-06T11:32:57.771Z,98993.27
2023-03-06T11:37:26.001Z,98993.52
2023-03-06T11:41:44.068Z,98993.44
2023-03-06T11:46:25.844Z,98992.98
2023-03-06T11:50:36.647Z,98988.35
2023-03-06T11:54:39.455Z,98984.84
2023-03-06T11:59:20.916Z,98973.85
2023-03-06T12:04:11.325Z,98968.77
2023-03-06T12:08:20.734Z,98964.30
2023-03-06T12:12:44.366Z,98968.23
2023-03-06T12:17:26.559Z,98962.80
2023-03-06T12:22:11.198Z,98975.72
2023-03-06T12:26:58.734Z,98974.06
2023-03-06T12:31:48.471Z,98977.05
2023-03-06T12:59:24.205Z,98981.89
2023-03-06T13:04:16.871Z,98960.52
2023-03-06T13:08:57.817Z,98950.08
2023-03-06T13:13:49.370Z,98942.42
2023-03-06T13:17:52.265Z,98939.49
2023-03-06T13:21:57.323Z,98934.67
2023-03-06T13:26:04.241Z,98931.67
2023-03-06T13:30:38.984Z,98928.25
2023-03-06T13:34:43.387Z,98924.16
2023-03-06T13:38:49.052Z,98922.69
2023-03-06T13:48:15.629Z,98916.05
2023-03-06T13:52:32.520Z,98911.11
2023-03-06T13:56:53.542Z,98913.20
2023-03-06T14:01:27.800Z,98918.48
2023-03-06T14:05:45.090Z,98913.31
2023-03-06T14:09:58.344Z,98907.34
2023-03-06T14:14:02.039Z,98903.03
2023-03-06T14:18:08.164Z,98900.77
2023-03-06T14:22:18.798Z,98898.51
2023-03-06T14:26:26.622Z,98894.45
2023-03-06T14:30:29.588Z,98892.95
2023-03-06T14:34:39.955Z,98893.36
2023-03-06T14:38:47.356Z,98895.46
2023-03-06T14:43:10.000Z,98895.85
2023-03-06T14:47:31.180Z,98887.36
2023-03-06T14:51:42.541Z,98883.69
2023-03-06T14:56:01.209Z,98881.90
2023-03-06T15:00:05.520Z,98880.35
2023-03-06T15:04:23.756Z,98878.49
2023-03-06T15:08:31.378Z,98874.95
2023-03-06T15:12:36.628Z,98873.27
2023-03-06T15:16:39.638Z,98870.75
2023-03-06T15:20:47.858Z,98872.86
2023-03-06T15:24:51.114Z,98873.45
2023-03-06T15:29:08.272Z,98874.48
2023-03-06T15:33:24.634Z,98879.61
2023-03-06T15:37:29.192Z,98878.05
2023-03-06T15:41:37.842Z,98881.26
2023-03-06T15:45:40.983Z,98882.30
2023-03-06T15:49:43.881Z,98884.33
2023-03-06T15:53:46.845Z,98886.35
2023-03-06T15:57:59.900Z,98886.08
2023-03-06T16:02:14.493Z,98888.64
2023-03-06T16:06:19.834Z,98891.69
2023-03-06T16:10:25.651Z,98890.23
2023-03-06T16:14:29.001Z,98889.43
2023-03-06T16:18:31.940Z,98891.48
2023-03-06T16:22:35.213Z,98898.46
2023-03-06T16:26:38.419Z,98898.02
2023-03-06T16:30:43.592Z,98898.98
2023-03-06T16:34:47.131Z,98904.88
2023-03-06T16:38:51.390Z,98906.75
2023-03-06T16:42:55.559Z,98910.09
2023-03-06T16:47:00.844Z,98913.17
2023-03-06T16:51:04.066Z,98915.71
2023-03-06T16:55:07.348Z,98916.46
2023-03-06T16:59:10.967Z,98916.02
2023-03-06T17:03:14.379Z,98916.22
2023-03-06T17:07:17.431Z,98920.80
2023-03-06T17:11:20.563Z,98920.51
2023-03-06T17:15:24.424Z,98920.75
2023-03-06T17:19:27.524Z,98921.54
2023-03-06T17:23:31.125Z,98928.23
2023-03-06T17:27:35.568Z,98927.19
2023-03-06T17:31:39.511Z,98931.12
2023-03-06T17:35:43.113Z,98930.89
2023-03-06T17:39:46.709Z,98934.76
2023-03-06T17:43:50.862Z,98939.69
2023-03-06T17:47:54.490Z,98936.84
2023-03-06T17:51:59.967Z,98939.48
2023-03-06T17:56:05.274Z,98939.22
2023-03-06T18:00:09.605Z,98939.80
2023-03-06T18:04:13.199Z,98940.45
2023-03-06T18:08:15.999Z,98937.93
2023-03-06T18:12:19.303Z,98943.15
2023-03-06T18:16:25.280Z,98942.52
2023-03-06T18:20:28.473Z,98948.73
2023-03-06T18:24:31.382Z,98959.22
2023-03-06T18:28:34.549Z,98959.27
2023-03-06T18:32:37.700Z,98969.50
2023-03-06T18:36:42.555Z,98973.65
2023-03-06T18:40:46.279Z,98974.81
2023-03-06T18:44:49.380Z,98973.98
2023-03-06T18:48:52.663Z,98973.84
2023-03-06T18:52:55.718Z,98974.91
2023-03-06T18:56:58.798Z,98977.73
2023-03-06T19:01:08.900Z,98980.22
2023-03-06T19:05:11.852Z,98985.80
2023-03-06T19:09:15.560Z,98990.64
2023-03-06T19:13:18.516Z,98989.52
2023-03-06T19:17:23.421Z,98999.13
2023-03-06T19:21:28.600Z,99000.70
2023-03-06T19:25:32.773Z,99005.17
2023-03-06T19:29:35.775Z,99015.30
2023-03-06T19:33:39.722Z,99013.74
2023-03-06T19:37:42.669Z,99015.30
2023-03-06T19:41:48.975Z,99019.21
2023-03-06T19:45:51.906Z,99013.09
2023-03-06T19:49:55.074Z,99007.68
2023-03-06T19:53:58.042Z,99010.75
2023-03-06T19:58:01.208Z,99005.50
2023-03-06T20:02:04.158Z,98999.77
2023-03-06T20:06:12.573Z,99002.98
2023-03-06T20:10:16.220Z,99003.35
2023-03-06T20:14:19.584Z,99003.30
2023-03-06T20:18:22.448Z,99004.73
2023-03-06T20:22:25.701Z,99004.64
2023-03-06T20:26:29.488Z,99007.92
2023-03-06T20:30:38.041Z,99005.19
2023-03-06T20:34:41.821Z,99005.90
2023-03-06T20:38:46.978Z,99008.13
2023-03-06T20:42:49.786Z,99008.17
2023-03-06T20:46:52.791Z,99009.38
2023-03-06T22:01:29.193Z,98999.29
2023-03-06T22:06:07.089Z,98999.65
2023-03-06T22:10:12.267Z,98994.52
2023-03-06T22:14:34.610Z,98991.11
2023-03-06T22:18:37.774Z,98987.33
2023-03-06T22:23:15.887Z,98981.92
2023-03-06T22:27:18.803Z,98976.67
2023-03-06T22:31:52.093Z,98980.44
2023-03-06T22:40:19.920Z,98970.79
2023-03-06T22:44:45.835Z,98969.89
2023-03-06T22:48:48.648Z,98966.43
2023-03-06T22:52:51.439Z,98960.59
2023-03-06T22:57:49.072Z,98960.81
2023-03-06T23:02:48.006Z,98959.35
2023-03-06T23:06:51.145Z,98960.25
2023-03-06T23:11:46.860Z,98959.05
2023-03-06T23:15:49.724Z,98958.30
2023-03-06T23:19:53.163Z,98955.64
2023-03-06T23:23:56.107Z,98964.02
2023-03-06T23:27:58.940Z,98965.12
2023-03-06T23:32:01.859Z,98961.75
2023-03-06T23:36:07.095Z,98962.46
2023-03-06T23:41:20.204Z,98961.40
2023-03-06T23:45:23.089Z,98961.91
2023-03-06T23:49:26.035Z,98963.23
2023-03-06T23:54:21.213Z,98960.39
2023-03-06T23:58:24.028Z,98959.21
